createdAt,value
2017-05-29T00:05:53.161Z,88.50
2017-05-29T00:08:21.121Z,88.70
2017-05-29T00:10:49.063Z,88.90
2017-05-29T00:13:17.414Z,88.60
2017-05-29T00:15:45.351Z,88.50
2017-05-29T00:18:13.663Z,88.50
2017-05-29T00:20:42.051Z,88.80
2017-05-29T00:23:10.382Z,88.70
2017-05-29T00:25:38.323Z,89.10
2017-05-29T00:30:35.939Z,89.10
2017-05-29T00:33:04.245Z,88.60
2017-05-29T00:35:32.226Z,88.50
2017-05-29T00:42:58.761Z,88.90
2017-05-29T00:45:26.715Z,89.10
2017-05-29T00:47:54.668Z,88.80
2017-05-29T00:50:23.419Z,89.00
2017-05-29T00:52:51.745Z,89.40
2017-05-29T00:55:20.059Z,89.60
2017-05-29T00:57:48.407Z,89.50
2017-05-29T01:00:16.724Z,88.60
2017-05-29T01:02:45.779Z,88.50
2017-05-29T01:05:14.135Z,89.10
2017-05-29T01:07:42.464Z,89.30
2017-05-29T01:10:10.415Z,89.30
2017-05-29T01:12:38.775Z,88.30
2017-05-29T01:15:06.718Z,89.40
2017-05-29T01:17:35.391Z,88.80
2017-05-29T01:22:32.283Z,88.10
2017-05-29T01:25:00.587Z,88.90
2017-05-29T01:32:26.750Z,88.80
2017-05-29T01:34:55.489Z,88.20
2017-05-29T01:37:23.434Z,88.60
2017-05-29T01:39:51.410Z,87.20
2017-05-29T01:42:19.791Z,87.80
2017-05-29T01:44:47.723Z,86.90
2017-05-29T01:47:16.771Z,87.30
2017-05-29T01:59:41.127Z,86.50
2017-05-29T02:02:10.171Z,85.90
2017-05-29T02:04:38.552Z,86.30
2017-05-29T02:07:06.491Z,87.40
2017-05-29T02:09:34.431Z,87.20
2017-05-29T02:12:02.419Z,86.00
2017-05-29T02:14:30.726Z,86.70
2017-05-29T02:16:58.666Z,86.70
2017-05-29T02:19:27.031Z,87.00
2017-05-29T02:21:55.350Z,86.60
2017-05-29T02:24:23.296Z,87.10
2017-05-29T02:26:51.672Z,86.70
2017-05-29T02:29:20.008Z,86.40
2017-05-29T02:31:48.334Z,86.60
2017-05-29T02:34:16.343Z,86.40
2017-05-29T02:36:44.651Z,86.60
2017-05-29T02:39:12.958Z,87.30
2017-05-29T02:41:41.320Z,86.50
2017-05-29T02:44:10.014Z,86.80
2017-05-29T02:46:37.959Z,87.00
2017-05-29T02:49:06.314Z,85.40
2017-05-29T02:51:34.251Z,84.70
2017-05-29T02:54:02.558Z,86.20
2017-05-29T02:56:30.558Z,86.40
2017-05-29T02:58:58.863Z,86.60
2017-05-29T03:01:26.823Z,87.30
2017-05-29T03:03:55.198Z,87.20
2017-05-29T03:06:23.526Z,87.00
2017-05-29T03:08:51.876Z,86.10
2017-05-29T03:11:19.864Z,86.60
2017-05-29T03:13:48.180Z,85.70
2017-05-29T03:16:16.526Z,84.30
2017-05-29T03:18:44.543Z,85.20
2017-05-29T03:21:12.854Z,85.70
2017-05-29T03:23:41.186Z,86.30
2017-05-29T03:26:09.949Z,86.60
2017-05-29T03:28:37.892Z,86.20
2017-05-29T03:31:06.195Z,86.70
2017-05-29T03:33:34.178Z,86.20
2017-05-29T03:36:02.480Z,87.00
2017-05-29T03:38:30.415Z,87.10
2017-05-29T03:40:58.783Z,87.00
2017-05-29T03:43:27.107Z,87.10
2017-05-29T03:45:55.049Z,87.00
2017-05-29T03:48:23.416Z,87.30
2017-05-29T03:50:51.757Z,87.10
2017-05-29T03:53:19.715Z,87.40
2017-05-29T03:55:48.072Z,88.20
2017-05-29T03:58:16.384Z,87.40
2017-05-29T04:00:44.686Z,87.60
2017-05-29T04:03:12.678Z,88.00
2017-05-29T04:05:41.732Z,88.10
2017-05-29T04:08:09.683Z,88.10
2017-05-29T04:15:36.580Z,89.10
2017-05-29T04:18:04.927Z,90.00
2017-05-29T04:20:33.230Z,89.60
2017-05-29T04:23:01.534Z,89.90
2017-05-29T04:25:29.891Z,89.60
2017-05-29T04:30:27.095Z,88.40
2017-05-29T04:32:55.484Z,89.30
2017-05-29T04:40:21.295Z,89.30
2017-05-29T04:42:49.246Z,89.20
2017-05-29T04:45:17.555Z,89.40
2017-05-29T04:47:45.530Z,89.50
2017-05-29T04:50:13.830Z,89.60
2017-05-29T04:52:41.778Z,89.60
2017-05-29T04:55:10.139Z,89.30
2017-05-29T04:57:38.079Z,89.10
2017-05-29T05:00:06.011Z,89.30
2017-05-29T05:02:34.363Z,89.40
2017-05-29T05:05:02.291Z,89.60
2017-05-29T05:07:30.599Z,89.90
2017-05-29T05:09:58.956Z,89.60
2017-05-29T05:12:27.272Z,89.40
2017-05-29T05:14:55.609Z,89.10
2017-05-29T05:17:23.629Z,89.30
2017-05-29T05:19:51.964Z,89.10
2017-05-29T05:22:20.272Z,88.70
2017-05-29T05:24:49.390Z,89.00
2017-05-29T05:27:17.327Z,89.00
2017-05-29T05:29:45.638Z,88.70
2017-05-29T05:32:13.619Z,88.20
2017-05-29T05:34:41.563Z,88.20
2017-05-29T05:37:09.879Z,88.10
2017-05-29T05:39:37.860Z,88.30
2017-05-29T05:42:06.167Z,88.20
2017-05-29T05:44:34.103Z,88.00
2017-05-29T05:47:02.563Z,87.40
2017-05-29T05:49:30.499Z,87.10
2017-05-29T05:51:58.807Z,86.70
2017-05-29T05:54:27.167Z,85.80
2017-05-29T05:56:55.483Z,86.30
2017-05-29T05:59:23.436Z,84.70
2017-05-29T06:01:51.827Z,83.70
2017-05-29T06:04:20.140Z,83.40
2017-05-29T06:06:48.102Z,83.60
2017-05-29T06:09:16.459Z,83.00
2017-05-29T06:14:13.655Z,82.90
2017-05-29T06:16:41.649Z,81.70
2017-05-29T06:19:09.587Z,80.30
2017-05-29T06:21:37.902Z,79.10
2017-05-29T06:24:05.886Z,78.70
2017-05-29T06:26:34.199Z,78.90
2017-05-29T06:29:02.139Z,78.10
2017-05-29T06:31:30.506Z,76.20
2017-05-29T06:33:58.814Z,76.10
2017-05-29T06:36:27.144Z,76.00
2017-05-29T06:38:55.548Z,76.00
2017-05-29T06:41:23.506Z,76.00
2017-05-29T06:43:51.850Z,74.90
2017-05-29T06:46:19.846Z,74.20
2017-05-29T06:48:48.155Z,73.80
2017-05-29T06:51:16.463Z,73.50
2017-05-29T06:53:45.547Z,71.70
2017-05-29T06:56:13.479Z,71.20
2017-05-29T06:58:41.432Z,68.90
2017-05-29T07:01:09.414Z,65.30
2017-05-29T07:03:37.723Z,66.50
2017-05-29T07:06:05.665Z,65.10
2017-05-29T07:08:34.019Z,66.50
2017-05-29T07:11:02.323Z,65.00
2017-05-29T07:13:30.255Z,63.80
2017-05-29T07:15:58.607Z,62.80
2017-05-29T07:18:26.915Z,63.60
2017-05-29T07:20:55.229Z,62.80
2017-05-29T07:23:23.587Z,63.40
2017-05-29T07:25:51.532Z,61.80
2017-05-29T07:28:19.838Z,63.30
2017-05-29T07:30:48.193Z,62.00
2017-05-29T07:33:16.865Z,63.60
2017-05-29T07:35:45.167Z,64.00
2017-05-29T07:38:13.151Z,64.20
2017-05-29T07:40:41.484Z,62.80
2017-05-29T07:43:09.425Z,62.70
2017-05-29T07:45:37.415Z,64.50
2017-05-29T07:48:05.715Z,63.80
2017-05-29T07:50:34.026Z,64.80
2017-05-29T07:53:02.007Z,62.00
2017-05-29T07:55:30.311Z,62.90
2017-05-29T07:57:58.623Z,63.70
2017-05-29T08:00:26.987Z,62.10
2017-05-29T08:02:55.295Z,61.30
2017-05-29T08:05:23.624Z,61.20
2017-05-29T08:07:51.636Z,60.50
2017-05-29T08:10:19.572Z,62.80
2017-05-29T08:12:47.875Z,61.40
2017-05-29T08:15:16.228Z,58.90
2017-05-29T08:17:44.902Z,57.20
2017-05-29T08:20:13.212Z,57.90
2017-05-29T08:22:41.225Z,56.60
2017-05-29T08:25:09.161Z,58.10
2017-05-29T08:27:37.475Z,56.30
2017-05-29T08:30:05.843Z,55.70
2017-05-29T08:32:33.779Z,57.60
2017-05-29T08:35:01.711Z,56.40
2017-05-29T08:37:30.427Z,57.20
2017-05-29T08:44:56.936Z,52.30
2017-05-29T08:47:25.255Z,52.80
2017-05-29T08:49:53.583Z,54.30
2017-05-29T08:52:21.615Z,52.90
2017-05-29T08:54:49.918Z,55.90
2017-05-29T08:57:18.956Z,54.20
2017-05-29T08:59:46.932Z,53.80
2017-05-29T09:02:14.868Z,54.70
2017-05-29T09:04:43.167Z,56.10
2017-05-29T09:07:11.159Z,54.90
2017-05-29T09:09:39.456Z,52.70
2017-05-29T09:12:07.390Z,54.20
2017-05-29T09:14:35.731Z,50.50
2017-05-29T09:17:04.030Z,50.70
2017-05-29T09:19:32.326Z,46.50
2017-05-29T09:22:00.692Z,47.90
2017-05-29T09:24:28.623Z,48.70
2017-05-29T09:26:56.923Z,47.50
2017-05-29T09:29:25.321Z,45.80
2017-05-29T09:31:53.640Z,47.30
2017-05-29T09:34:21.611Z,44.30
2017-05-29T09:36:49.955Z,47.80
2017-05-29T09:39:18.626Z,45.70
2017-05-29T09:41:46.927Z,46.20
2017-05-29T09:44:14.931Z,47.00
2017-05-29T09:46:42.872Z,43.60
2017-05-29T09:49:11.194Z,41.60
2017-05-29T09:51:39.187Z,40.60
2017-05-29T09:54:07.483Z,45.10
2017-05-29T09:56:35.779Z,43.20
2017-05-29T09:59:03.750Z,40.70
2017-05-29T10:01:31.679Z,41.40
2017-05-29T10:04:00.351Z,40.80
2017-05-29T10:06:28.695Z,42.80
2017-05-29T10:08:57.003Z,43.30
2017-05-29T10:11:24.962Z,42.10
2017-05-29T10:16:22.232Z,43.00
2017-05-29T10:18:50.549Z,42.10
2017-05-29T10:21:18.531Z,45.50
2017-05-29T10:23:46.830Z,42.10
2017-05-29T10:26:14.762Z,42.30
2017-05-29T10:28:43.110Z,39.10
2017-05-29T10:31:11.047Z,40.30
2017-05-29T10:33:38.975Z,40.50
2017-05-29T10:36:07.314Z,39.30
2017-05-29T10:38:35.614Z,40.60
2017-05-29T10:41:03.910Z,38.20
2017-05-29T10:43:32.254Z,37.60
2017-05-29T10:46:00.187Z,37.30
2017-05-29T10:48:28.483Z,40.00
2017-05-29T10:50:56.840Z,34.10
2017-05-29T10:53:25.901Z,34.30
2017-05-29T10:55:54.223Z,35.00
2017-05-29T10:58:22.222Z,33.80
2017-05-29T11:00:50.150Z,33.00
2017-05-29T11:03:18.455Z,32.50
2017-05-29T11:05:46.803Z,32.50
2017-05-29T11:10:44.791Z,32.30
2017-05-29T11:13:12.770Z,33.20
2017-05-29T11:15:41.092Z,33.60
2017-05-29T11:18:09.394Z,34.80
2017-05-29T11:20:37.380Z,32.70
2017-05-29T11:23:05.319Z,33.70
2017-05-29T11:25:34.359Z,36.80
2017-05-29T11:28:02.343Z,32.70
2017-05-29T11:30:30.275Z,34.60
2017-05-29T11:32:58.571Z,35.70
2017-05-29T11:35:26.928Z,34.00
2017-05-29T11:37:55.234Z,34.80
2017-05-29T11:40:24.304Z,33.10
2017-05-29T11:42:52.326Z,32.30
2017-05-29T11:45:20.254Z,34.40
2017-05-29T11:47:48.562Z,35.00
2017-05-29T11:50:16.549Z,32.80
2017-05-29T11:52:44.479Z,31.80
2017-05-29T11:55:12.781Z,32.70
2017-05-29T11:57:41.146Z,30.60
2017-05-29T12:00:09.074Z,32.00
2017-05-29T12:02:37.371Z,31.60
2017-05-29T12:05:05.340Z,31.80
2017-05-29T12:07:34.011Z,32.80
2017-05-29T12:10:01.935Z,36.30
2017-05-29T12:12:30.298Z,34.60
2017-05-29T12:14:58.598Z,32.40
2017-05-29T12:17:26.912Z,32.60
2017-05-29T12:19:55.284Z,36.60
2017-05-29T12:22:23.978Z,31.60
2017-05-29T12:24:52.291Z,33.60
2017-05-29T12:27:20.299Z,33.30
2017-05-29T12:29:48.267Z,35.70
2017-05-29T12:32:16.567Z,33.10
2017-05-29T12:34:44.539Z,32.40
2017-05-29T12:37:12.465Z,32.10
2017-05-29T12:39:40.785Z,34.60
2017-05-29T12:42:09.126Z,32.80
2017-05-29T12:44:37.423Z,29.70
2017-05-29T12:47:05.723Z,30.70
2017-05-29T12:49:33.691Z,29.50
2017-05-29T12:52:02.003Z,29.10
2017-05-29T12:54:30.318Z,29.10
2017-05-29T12:56:58.658Z,28.40
2017-05-29T12:59:26.595Z,30.90
2017-05-29T13:01:55.645Z,31.30
2017-05-29T13:04:24.014Z,31.60
2017-05-29T13:06:51.951Z,28.80
2017-05-29T13:09:20.256Z,28.70
2017-05-29T13:11:48.227Z,30.70
2017-05-29T13:14:16.155Z,30.60
2017-05-29T13:16:44.460Z,30.30
2017-05-29T13:19:12.991Z,28.70
2017-05-29T13:21:40.935Z,29.30
2017-05-29T13:24:08.868Z,28.80
2017-05-29T13:26:37.211Z,26.50
2017-05-29T13:29:05.515Z,29.10
2017-05-29T13:31:33.816Z,30.10
2017-05-29T13:34:02.167Z,30.80
2017-05-29T13:36:30.100Z,31.60
2017-05-29T13:38:58.395Z,28.50
2017-05-29T13:41:26.756Z,30.30
2017-05-29T13:43:55.064Z,31.50
2017-05-29T13:46:23.764Z,29.30
2017-05-29T13:48:52.119Z,30.00
2017-05-29T13:51:20.052Z,30.00
2017-05-29T13:53:47.983Z,28.20
2017-05-29T13:56:16.330Z,28.40
2017-05-29T13:58:44.259Z,28.60
2017-05-29T14:01:12.577Z,27.00
2017-05-29T14:03:40.558Z,30.70
2017-05-29T14:06:08.855Z,27.60
2017-05-29T14:08:37.156Z,28.20
2017-05-29T14:11:05.512Z,27.50
2017-05-29T14:13:34.183Z,30.00
2017-05-29T14:18:31.411Z,30.10
2017-05-29T14:20:59.338Z,29.20
2017-05-29T14:23:27.646Z,28.80
2017-05-29T14:25:55.634Z,28.90
2017-05-29T14:28:23.608Z,30.20
2017-05-29T14:30:51.941Z,30.30
2017-05-29T14:33:19.937Z,33.10
2017-05-29T14:35:47.882Z,31.90
2017-05-29T14:38:16.187Z,32.20
2017-05-29T14:40:44.170Z,31.70
2017-05-29T14:43:12.494Z,32.20
2017-05-29T14:45:40.444Z,30.00
2017-05-29T14:48:08.799Z,30.00
2017-05-29T14:50:36.735Z,29.20
2017-05-29T14:53:05.414Z,30.80
2017-05-29T14:55:34.407Z,33.50
2017-05-29T15:00:31.240Z,33.40
2017-05-29T15:02:59.211Z,31.80
2017-05-29T15:05:27.160Z,30.80
2017-05-29T15:07:55.480Z,33.80
2017-05-29T15:15:21.682Z,32.80
2017-05-29T15:17:50.042Z,32.60
2017-05-29T15:20:17.986Z,33.10
2017-05-29T15:22:45.923Z,34.70
2017-05-29T15:25:14.284Z,35.70
2017-05-29T15:27:42.957Z,36.40
2017-05-29T15:30:10.895Z,37.30
2017-05-29T15:32:39.254Z,37.30
2017-05-29T15:40:05.755Z,37.10
2017-05-29T15:42:34.087Z,34.20
2017-05-29T15:45:03.160Z,35.20
2017-05-29T15:47:31.148Z,35.40
2017-05-29T15:54:58.023Z,36.10
2017-05-29T15:57:25.955Z,35.40
2017-05-29T15:59:54.268Z,35.50
2017-05-29T16:02:22.623Z,36.70
2017-05-29T16:04:50.563Z,35.20
2017-05-29T16:07:19.063Z,37.20
2017-05-29T16:09:47.571Z,36.80
2017-05-29T16:14:45.967Z,36.70
2017-05-29T16:19:43.599Z,36.00
2017-05-29T16:22:11.546Z,36.20
2017-05-29T16:24:39.953Z,37.00
2017-05-29T16:29:37.159Z,36.80
2017-05-29T16:32:05.158Z,36.70
2017-05-29T16:34:33.495Z,37.30
2017-05-29T16:37:01.443Z,37.80
2017-05-29T16:39:30.196Z,38.10
2017-05-29T16:44:27.788Z,38.20
2017-05-29T16:49:25.053Z,38.80
2017-05-29T16:51:52.990Z,38.70
2017-05-29T16:54:21.370Z,39.70
2017-05-29T16:59:18.944Z,39.70
2017-05-29T17:09:14.811Z,41.00
2017-05-29T17:11:43.117Z,41.80
2017-05-29T17:14:11.056Z,42.40
2017-05-29T17:16:39.777Z,42.90
2017-05-29T17:21:37.799Z,43.20
2017-05-29T17:24:06.179Z,44.10
2017-05-29T17:26:34.483Z,44.50
2017-05-29T17:29:02.796Z,44.60
2017-05-29T17:34:00.419Z,45.60
2017-05-29T17:36:28.747Z,46.00
2017-05-29T17:43:55.367Z,45.40
2017-05-29T17:46:25.540Z,46.30
2017-05-29T17:51:22.760Z,47.70
2017-05-29T17:58:49.695Z,51.00
2017-05-29T18:03:47.349Z,52.30
2017-05-29T18:06:16.043Z,53.00
2017-05-29T18:11:14.106Z,53.80
2017-05-29T18:13:42.047Z,54.10
2017-05-29T18:16:10.411Z,54.50
2017-05-29T18:18:38.714Z,54.60
2017-05-29T18:28:33.426Z,55.50
2017-05-29T18:31:02.539Z,55.80
2017-05-29T18:33:30.847Z,56.20
2017-05-29T18:35:58.787Z,55.80
2017-05-29T18:38:27.158Z,55.90
2017-05-29T18:40:55.121Z,55.80
2017-05-29T18:50:50.269Z,56.00
2017-05-29T18:55:48.033Z,56.90
2017-05-29T18:58:16.737Z,57.00
2017-05-29T19:00:44.747Z,57.40
2017-05-29T19:03:12.716Z,57.80
2017-05-29T19:05:40.719Z,58.40
2017-05-29T19:08:09.456Z,58.40
2017-05-29T19:15:36.008Z,59.30
2017-05-29T19:18:04.747Z,59.10
2017-05-29T19:20:32.741Z,59.60
2017-05-29T19:23:01.128Z,59.40
2017-05-29T19:25:29.069Z,58.90
2017-05-29T19:27:57.755Z,59.10
2017-05-29T19:30:26.131Z,58.90
2017-05-29T19:32:54.439Z,60.00
2017-05-29T19:35:22.758Z,59.10
2017-05-29T19:37:51.879Z,58.50
2017-05-29T19:40:20.187Z,59.00
2017-05-29T19:50:14.903Z,61.10
2017-05-29T19:52:43.303Z,61.50
2017-05-29T19:55:11.605Z,61.70
2017-05-29T19:57:40.335Z,61.90
2017-05-29T20:00:09.072Z,63.00
2017-05-29T20:02:37.379Z,63.80
2017-05-29T20:07:35.520Z,63.40
2017-05-29T20:10:03.839Z,65.10
2017-05-29T20:15:01.483Z,64.00
2017-05-29T20:17:29.481Z,64.30
2017-05-29T20:19:57.811Z,64.60
2017-05-29T20:22:26.555Z,65.00
2017-05-29T20:24:54.512Z,65.10
2017-05-29T20:27:22.508Z,65.30
2017-05-29T20:32:20.183Z,65.60
2017-05-29T20:34:48.146Z,65.90
2017-05-29T20:37:16.543Z,65.90
2017-05-29T20:39:44.496Z,66.00
2017-05-29T20:42:12.481Z,65.40
2017-05-29T20:44:40.946Z,66.50
2017-05-29T20:47:08.888Z,66.80
2017-05-29T20:49:36.832Z,66.40
2017-05-29T20:52:05.235Z,66.50
2017-05-29T20:54:33.666Z,66.90
2017-05-29T20:57:01.219Z,66.70
2017-05-29T21:01:58.559Z,67.80
2017-05-29T21:06:56.178Z,67.90
2017-05-29T21:09:24.491Z,68.30
2017-05-29T21:11:52.804Z,68.30
2017-05-29T21:14:20.796Z,68.40
2017-05-29T21:16:49.124Z,68.70
2017-05-29T21:19:17.443Z,68.80
2017-05-29T21:21:46.175Z,69.30
2017-05-29T21:29:13.260Z,69.10
2017-05-29T21:31:41.199Z,69.70
2017-05-29T21:36:38.843Z,69.70
2017-05-29T21:39:07.151Z,70.00
2017-05-29T21:41:35.839Z,69.60
2017-05-29T21:44:03.836Z,70.00
2017-05-29T21:46:31.812Z,70.40
2017-05-29T21:49:00.152Z,70.40
2017-05-29T21:51:28.522Z,70.40
2017-05-29T21:53:56.462Z,70.60
2017-05-29T22:01:23.379Z,71.40
2017-05-29T22:03:52.054Z,71.40
2017-05-29T22:06:20.437Z,71.90
2017-05-29T22:11:18.410Z,71.80
2017-05-29T22:13:46.779Z,71.20
2017-05-29T22:16:15.464Z,71.10
2017-05-29T22:21:13.108Z,71.00
2017-05-29T22:23:41.416Z,71.10
2017-05-29T22:26:09.724Z,71.20
2017-05-29T22:28:38.448Z,70.90
2017-05-29T22:33:36.407Z,71.10
2017-05-29T22:36:04.434Z,70.60
2017-05-29T22:38:32.807Z,71.30
2017-05-29T22:43:30.111Z,72.20
2017-05-29T22:45:58.052Z,72.40
2017-05-29T22:48:25.997Z,72.80
2017-05-29T22:50:54.718Z,72.90
2017-05-29T22:53:23.031Z,74.00
2017-05-29T22:55:51.354Z,74.30
2017-05-29T22:58:19.739Z,74.50
2017-05-29T23:00:48.792Z,74.00
2017-05-29T23:03:17.095Z,74.20
2017-05-29T23:05:45.083Z,74.40
2017-05-29T23:08:13.388Z,74.60
2017-05-29T23:10:41.703Z,74.80
2017-05-29T23:13:10.060Z,75.00
2017-05-29T23:15:37.998Z,75.20
2017-05-29T23:18:06.331Z,75.50
2017-05-29T23:20:34.706Z,75.60
2017-05-29T23:23:03.039Z,76.00
2017-05-29T23:25:32.447Z,75.90
2017-05-29T23:30:30.143Z,75.60
2017-05-29T23:32:58.458Z,75.50
2017-05-29T23:35:26.439Z,75.70
2017-05-29T23:37:54.370Z,75.60
2017-05-29T23:40:22.304Z,75.80
2017-05-29T23:42:51.423Z,75.50
2017-05-29T23:45:19.770Z,76.00
2017-05-29T23:47:48.091Z,75.80
2017-05-29T23:52:45.723Z,75.00
2017-05-29T23:56:54.219Z,74.80
2017-05-29T23:59:22.171Z,75.10
